createdAt,value
2019-05-22T00:01:24.792Z,99.90
2019-05-22T00:04:30.293Z,99.90
2019-05-22T00:07:35.032Z,99.90
2019-05-22T00:10:40.524Z,99.90
2019-05-22T00:13:46.716Z,99.90
2019-05-22T00:16:50.562Z,99.90
2019-05-22T00:19:53.971Z,99.90
2019-05-22T00:22:59.239Z,99.90
2019-05-22T00:26:04.247Z,99.90
2019-05-22T00:29:08.067Z,99.90
2019-05-22T00:32:13.103Z,99.90
2019-05-22T00:35:20.664Z,99.90
2019-05-22T00:38:24.711Z,99.90
2019-05-22T00:41:33.264Z,99.90
2019-05-22T00:44:37.092Z,99.90
2019-05-22T00:47:41.358Z,99.90
2019-05-22T00:50:52.905Z,99.90
2019-05-22T00:54:34.054Z,99.90
2019-05-22T00:57:46.065Z,99.90
2019-05-22T01:00:53.687Z,99.90
2019-05-22T01:03:57.523Z,99.90
2019-05-22T01:07:04.208Z,99.90
2019-05-22T01:10:10.685Z,99.90
2019-05-22T01:13:14.592Z,99.90
2019-05-22T01:16:18.658Z,99.90
2019-05-22T01:19:24.335Z,99.90
2019-05-22T01:22:28.007Z,99.90
2019-05-22T01:25:33.533Z,99.90
2019-05-22T01:28:36.567Z,99.90
2019-05-22T01:31:45.712Z,99.90
2019-05-22T01:34:49.712Z,99.90
2019-05-22T01:37:54.341Z,99.90
2019-05-22T01:41:00.664Z,99.90
2019-05-22T01:44:06.141Z,99.90
2019-05-22T01:47:20.104Z,99.90
2019-05-22T01:50:48.734Z,99.90
2019-05-22T01:53:53.144Z,99.90
2019-05-22T01:57:03.793Z,99.90
2019-05-22T02:00:11.000Z,99.90
2019-05-22T02:03:16.685Z,99.90
2019-05-22T02:06:22.970Z,99.90
2019-05-22T02:09:36.919Z,99.90
2019-05-22T02:12:54.337Z,99.90
2019-05-22T02:15:58.110Z,99.90
2019-05-22T02:19:02.555Z,99.90
2019-05-22T02:22:06.353Z,99.90
2019-05-22T02:25:10.640Z,99.90
2019-05-22T02:28:14.207Z,99.90
2019-05-22T02:31:22.511Z,99.90
2019-05-22T02:34:27.670Z,99.90
2019-05-22T02:37:33.098Z,99.90
2019-05-22T02:40:38.538Z,99.90
2019-05-22T02:43:42.661Z,99.90
2019-05-22T02:46:46.284Z,99.90
2019-05-22T02:49:51.022Z,99.90
2019-05-22T02:52:54.924Z,99.90
2019-05-22T02:55:58.168Z,99.90
2019-05-22T02:59:04.920Z,99.90
2019-05-22T03:02:08.149Z,99.90
2019-05-22T03:05:12.269Z,99.90
2019-05-22T03:08:15.381Z,99.90
2019-05-22T03:11:18.389Z,99.90
2019-05-22T03:14:26.414Z,99.90
2019-05-22T03:17:31.407Z,99.90
2019-05-22T03:20:37.008Z,99.90
2019-05-22T03:23:41.733Z,99.90
2019-05-22T03:26:48.182Z,99.90
2019-05-22T03:29:56.020Z,99.90
2019-05-22T03:33:01.392Z,99.90
2019-05-22T03:36:15.190Z,99.90
2019-05-22T03:39:18.701Z,99.90
2019-05-22T03:42:22.313Z,99.90
2019-05-22T03:45:25.644Z,99.90
2019-05-22T03:48:34.718Z,99.90
2019-05-22T03:51:38.256Z,99.90
2019-05-22T03:54:43.022Z,99.90
2019-05-22T03:57:45.925Z,99.90
2019-05-22T04:00:51.382Z,99.90
2019-05-22T04:03:54.775Z,99.90
2019-05-22T04:06:57.913Z,99.90
2019-05-22T04:10:02.539Z,99.90
2019-05-22T04:13:06.020Z,99.90
2019-05-22T04:16:13.065Z,99.90
2019-05-22T04:19:16.288Z,99.90
2019-05-22T04:22:19.882Z,99.90
2019-05-22T04:25:23.619Z,99.90
2019-05-22T04:28:28.197Z,99.90
2019-05-22T04:31:51.221Z,99.90
2019-05-22T04:34:56.641Z,99.90
2019-05-22T04:37:59.686Z,99.90
2019-05-22T04:41:07.098Z,99.90
2019-05-22T04:44:10.873Z,99.90
2019-05-22T04:47:14.269Z,99.90
2019-05-22T04:50:17.212Z,99.90
2019-05-22T04:53:20.964Z,99.90
2019-05-22T04:56:24.563Z,99.90
2019-05-22T04:59:28.090Z,99.90
2019-05-22T05:02:31.398Z,99.90
2019-05-22T05:05:38.813Z,99.90
2019-05-22T05:08:42.356Z,99.90
2019-05-22T05:11:45.733Z,99.90
2019-05-22T05:14:49.444Z,99.90
2019-05-22T05:17:52.387Z,99.90
2019-05-22T05:20:56.493Z,99.90
2019-05-22T05:23:59.422Z,99.90
2019-05-22T05:27:04.370Z,99.90
2019-05-22T05:30:08.031Z,99.90
2019-05-22T05:33:12.058Z,99.90
2019-05-22T05:36:14.961Z,99.90
2019-05-22T05:40:24.983Z,99.90
2019-05-22T05:43:28.438Z,99.90
2019-05-22T05:46:31.425Z,99.90
2019-05-22T05:49:34.424Z,99.90
2019-05-22T05:52:37.480Z,99.90
2019-05-22T05:56:14.350Z,99.90
2019-05-22T05:59:21.108Z,99.90
2019-05-22T06:02:25.837Z,99.90
2019-05-22T06:05:29.741Z,99.90
2019-05-22T06:08:33.385Z,99.90
2019-05-22T06:11:48.369Z,99.90
2019-05-22T06:14:54.345Z,99.90
2019-05-22T06:18:39.334Z,99.90
2019-05-22T06:21:48.948Z,99.90
2019-05-22T06:24:57.660Z,99.90
2019-05-22T06:28:02.564Z,99.90
2019-05-22T06:31:12.795Z,99.90
2019-05-22T06:34:16.002Z,99.90
2019-05-22T06:37:37.641Z,99.90
2019-05-22T06:40:42.700Z,99.90
2019-05-22T06:44:38.065Z,99.90
2019-05-22T06:47:41.003Z,99.90
2019-05-22T06:50:43.997Z,99.90
2019-05-22T06:53:46.920Z,99.90
2019-05-22T06:56:49.840Z,99.90
2019-05-22T07:00:12.018Z,99.90
2019-05-22T07:03:01.543Z,99.90
2019-05-22T07:06:04.907Z,99.90
2019-05-22T07:09:10.566Z,99.90
2019-05-22T07:12:17.463Z,99.90
2019-05-22T07:15:36.030Z,99.90
2019-05-22T07:18:40.637Z,99.90
2019-05-22T07:21:45.565Z,99.90
2019-05-22T07:24:48.782Z,99.90
2019-05-22T07:27:52.388Z,99.90
2019-05-22T07:30:55.317Z,99.90
2019-05-22T07:33:58.620Z,99.90
2019-05-22T07:37:02.352Z,99.90
2019-05-22T07:40:07.415Z,99.90
2019-05-22T07:43:10.683Z,99.90
2019-05-22T07:46:14.113Z,99.90
2019-05-22T07:49:17.016Z,99.90
2019-05-22T07:52:21.021Z,99.90
2019-05-22T07:55:25.447Z,99.90
2019-05-22T07:58:30.464Z,99.90
2019-05-22T08:01:34.778Z,99.90
2019-05-22T08:04:41.219Z,99.90
2019-05-22T08:07:44.347Z,99.90
2019-05-22T08:10:47.886Z,99.90
2019-05-22T08:13:52.104Z,99.90
2019-05-22T08:16:55.127Z,99.90
2019-05-22T08:19:58.056Z,99.90
2019-05-22T08:23:01.262Z,99.90
2019-05-22T08:26:05.505Z,99.90
2019-05-22T08:29:09.931Z,99.90
2019-05-22T08:32:13.708Z,99.90
2019-05-22T08:35:16.816Z,99.90
2019-05-22T08:38:29.426Z,99.90
2019-05-22T08:41:39.541Z,99.90
2019-05-22T08:44:42.668Z,99.90
2019-05-22T08:47:45.772Z,99.90
2019-05-22T08:50:49.650Z,99.90
2019-05-22T08:53:54.031Z,99.90
2019-05-22T08:56:57.549Z,99.90
2019-05-22T09:00:00.776Z,99.90
2019-05-22T09:03:05.293Z,99.90
2019-05-22T09:06:09.467Z,99.90
2019-05-22T09:09:13.206Z,99.90
2019-05-22T09:12:18.645Z,99.90
2019-05-22T09:15:23.080Z,99.90
2019-05-22T09:18:26.395Z,99.90
2019-05-22T09:21:29.923Z,99.90
2019-05-22T09:24:33.243Z,99.90
2019-05-22T09:27:37.365Z,99.90
2019-05-22T09:30:40.687Z,99.90
2019-05-22T09:33:43.609Z,99.90
2019-05-22T09:36:47.341Z,99.90
2019-05-22T09:39:50.756Z,99.90
2019-05-22T09:42:53.844Z,99.90
2019-05-22T09:45:56.842Z,99.90
2019-05-22T09:49:00.077Z,99.90
2019-05-22T09:52:06.593Z,99.90
2019-05-22T09:55:10.337Z,99.90
2019-05-22T09:58:13.509Z,99.90
2019-05-22T10:01:17.338Z,99.90
2019-05-22T10:04:21.251Z,99.90
2019-05-22T10:07:25.007Z,99.90
2019-05-22T10:10:28.414Z,99.90
2019-05-22T10:13:32.241Z,99.90
2019-05-22T10:16:36.143Z,99.90
2019-05-22T10:19:39.428Z,99.90
2019-05-22T10:22:42.425Z,99.90
2019-05-22T10:25:45.594Z,99.90
2019-05-22T10:28:48.810Z,99.90
2019-05-22T10:31:51.820Z,99.90
2019-05-22T10:34:57.716Z,99.90
2019-05-22T10:38:01.263Z,99.90
2019-05-22T10:41:04.798Z,99.90
2019-05-22T10:44:07.879Z,99.90
2019-05-22T10:47:11.073Z,99.90
2019-05-22T10:50:15.515Z,99.90
2019-05-22T10:53:32.940Z,99.90
2019-05-22T10:56:25.139Z,99.90
2019-05-22T10:59:29.991Z,99.90
2019-05-22T11:02:33.019Z,99.90
2019-05-22T11:05:36.450Z,99.90
2019-05-22T11:08:40.577Z,99.90
2019-05-22T11:11:43.910Z,99.90
2019-05-22T11:14:47.245Z,99.90
2019-05-22T11:17:50.900Z,99.90
2019-05-22T11:20:54.000Z,99.90
2019-05-22T11:23:56.913Z,99.90
2019-05-22T11:26:59.960Z,99.90
2019-05-22T11:30:04.688Z,99.90
2019-05-22T11:33:09.383Z,99.90
2019-05-22T11:36:13.758Z,99.90
2019-05-22T11:39:36.345Z,99.90
2019-05-22T11:42:24.876Z,99.90
2019-05-22T11:45:29.194Z,99.90
2019-05-22T11:48:32.193Z,99.90
2019-05-22T11:51:35.544Z,99.90
2019-05-22T11:54:38.471Z,99.90
2019-05-22T11:57:42.821Z,99.90
2019-05-22T12:00:45.851Z,99.90
2019-05-22T12:03:49.863Z,99.90
2019-05-22T12:06:54.047Z,99.90
2019-05-22T12:09:58.297Z,99.90
2019-05-22T12:13:01.852Z,99.90
2019-05-22T12:16:05.936Z,99.90
2019-05-22T12:19:10.116Z,99.90
2019-05-22T12:22:13.342Z,99.90
2019-05-22T12:25:17.297Z,99.90
2019-05-22T12:28:21.033Z,99.90
2019-05-22T12:31:25.156Z,99.90
2019-05-22T12:34:28.358Z,99.90
2019-05-22T12:37:32.899Z,99.90
2019-05-22T12:40:35.805Z,99.90
2019-05-22T12:43:39.439Z,99.90
2019-05-22T12:46:42.997Z,99.90
2019-05-22T12:49:46.243Z,99.90
2019-05-22T12:52:49.961Z,99.90
2019-05-22T12:55:53.349Z,99.90
2019-05-22T12:58:56.985Z,99.90
2019-05-22T13:02:00.415Z,99.90
2019-05-22T13:05:04.788Z,99.90
2019-05-22T13:08:10.781Z,99.90
2019-05-22T13:11:14.301Z,99.90
2019-05-22T13:14:17.218Z,99.90
2019-05-22T13:17:22.867Z,99.90
2019-05-22T13:20:42.437Z,99.90
2019-05-22T13:23:40.888Z,99.90
2019-05-22T13:26:45.055Z,99.90
2019-05-22T13:29:49.326Z,99.90
2019-05-22T13:32:54.944Z,99.90
2019-05-22T13:35:58.982Z,99.90
2019-05-22T13:39:04.679Z,99.90
2019-05-22T13:42:08.288Z,99.90
2019-05-22T13:45:27.899Z,99.90
2019-05-22T13:48:17.301Z,99.90
2019-05-22T13:51:21.159Z,99.90
2019-05-22T13:54:25.068Z,99.90
2019-05-22T13:57:28.498Z,99.90
2019-05-22T14:00:32.009Z,99.90
2019-05-22T14:03:35.553Z,99.90
2019-05-22T14:06:38.463Z,99.90
2019-05-22T14:09:42.328Z,99.90
2019-05-22T14:12:46.175Z,99.90
2019-05-22T14:15:56.123Z,99.90
2019-05-22T14:18:54.615Z,99.90
2019-05-22T14:21:57.618Z,99.90
2019-05-22T14:25:00.557Z,99.90
2019-05-22T14:28:04.304Z,99.90
2019-05-22T14:31:07.239Z,98.90
2019-05-22T14:34:10.851Z,95.50
2019-05-22T14:37:14.384Z,94.50
2019-05-22T14:40:18.596Z,95.80
2019-05-22T14:43:21.525Z,98.20
2019-05-22T14:46:24.792Z,99.70
2019-05-22T14:49:27.776Z,99.90
2019-05-22T14:52:33.228Z,99.90
2019-05-22T14:55:36.460Z,99.90
2019-05-22T14:58:41.318Z,99.90
2019-05-22T15:01:44.444Z,99.90
2019-05-22T15:04:49.042Z,99.90
2019-05-22T15:07:52.547Z,99.90
2019-05-22T15:10:56.911Z,99.90
2019-05-22T15:14:00.251Z,99.90
2019-05-22T15:17:03.462Z,99.90
2019-05-22T15:20:07.504Z,99.90
2019-05-22T15:23:10.938Z,99.90
2019-05-22T15:26:14.569Z,99.90
2019-05-22T15:29:18.566Z,99.60
2019-05-22T15:32:23.774Z,99.10
2019-05-22T15:35:27.080Z,99.90
2019-05-22T15:38:30.404Z,99.20
2019-05-22T15:41:34.241Z,98.80
2019-05-22T15:44:39.382Z,99.60
2019-05-22T15:47:54.673Z,99.90
2019-05-22T15:50:53.229Z,98.40
2019-05-22T15:54:01.028Z,97.10
2019-05-22T15:57:09.887Z,98.10
2019-05-22T16:00:18.582Z,99.10
2019-05-22T16:03:27.512Z,99.90
2019-05-22T16:06:31.433Z,99.90
2019-05-22T16:09:35.163Z,99.90
2019-05-22T16:12:38.703Z,99.90
2019-05-22T16:15:46.122Z,99.90
2019-05-22T16:18:52.507Z,99.90
2019-05-22T16:22:02.297Z,99.90
2019-05-22T16:25:07.324Z,99.30
2019-05-22T16:28:13.309Z,99.80
2019-05-22T16:31:18.662Z,99.40
2019-05-22T16:34:22.223Z,99.90
2019-05-22T16:37:26.877Z,99.90
2019-05-22T16:40:31.293Z,99.90
2019-05-22T16:43:48.852Z,99.50
2019-05-22T16:46:45.363Z,99.90
2019-05-22T16:49:53.592Z,99.30
2019-05-22T16:53:01.981Z,99.90
2019-05-22T16:56:05.596Z,99.90
2019-05-22T16:59:11.166Z,99.90
2019-05-22T17:02:16.355Z,99.50
2019-05-22T17:05:21.985Z,99.70
2019-05-22T17:08:28.657Z,99.90
2019-05-22T17:11:32.369Z,99.30
2019-05-22T17:14:36.061Z,99.90
2019-05-22T17:17:39.684Z,99.90
2019-05-22T17:20:44.527Z,99.90
2019-05-22T17:23:49.429Z,99.90
2019-05-22T17:26:52.947Z,99.90
2019-05-22T17:29:56.804Z,99.90
2019-05-22T17:32:59.966Z,99.90
2019-05-22T17:36:05.736Z,99.90
2019-05-22T17:39:10.604Z,99.90
2019-05-22T17:42:23.040Z,98.80
2019-05-22T17:45:28.091Z,98.40
2019-05-22T17:48:33.407Z,99.20
2019-05-22T17:51:36.693Z,98.70
2019-05-22T17:54:40.871Z,96.90
2019-05-22T17:57:44.682Z,98.90
2019-05-22T18:00:49.847Z,99.90
2019-05-22T18:03:53.359Z,99.90
2019-05-22T18:06:57.062Z,96.50
2019-05-22T18:10:00.167Z,99.20
2019-05-22T18:13:05.345Z,99.90
2019-05-22T18:16:08.748Z,99.90
2019-05-22T18:19:12.505Z,99.90
2019-05-22T18:22:15.740Z,99.90
2019-05-22T18:25:19.028Z,99.90
2019-05-22T18:28:22.688Z,99.90
2019-05-22T18:31:26.015Z,99.90
2019-05-22T18:34:28.943Z,99.90
2019-05-22T18:37:32.210Z,99.90
2019-05-22T18:40:35.245Z,99.90
2019-05-22T18:43:39.803Z,99.90
2019-05-22T18:46:43.105Z,99.90
2019-05-22T18:49:46.069Z,99.90
2019-05-22T18:52:50.110Z,99.90
2019-05-22T18:55:53.053Z,99.90
2019-05-22T18:58:56.436Z,99.90
2019-05-22T19:02:00.125Z,99.90
2019-05-22T19:05:04.284Z,99.90
2019-05-22T19:08:07.416Z,99.90
2019-05-22T19:11:10.331Z,99.90
2019-05-22T19:14:14.708Z,99.90
2019-05-22T19:17:18.066Z,99.90
2019-05-22T19:20:22.595Z,99.90
2019-05-22T19:23:25.860Z,99.90
2019-05-22T19:26:29.328Z,99.90
2019-05-22T19:29:32.475Z,99.90
2019-05-22T19:32:36.327Z,99.90
2019-05-22T19:35:39.736Z,99.90
2019-05-22T19:38:42.757Z,99.90
2019-05-22T19:41:59.843Z,99.90
2019-05-22T19:44:51.538Z,99.90
2019-05-22T19:47:57.167Z,99.90
2019-05-22T19:51:02.151Z,99.90
2019-05-22T19:54:05.690Z,99.90
2019-05-22T19:57:10.707Z,99.90
2019-05-22T20:00:15.413Z,99.90
2019-05-22T20:03:19.354Z,99.90
2019-05-22T20:06:23.359Z,99.90
2019-05-22T20:09:27.509Z,99.90
2019-05-22T20:12:33.577Z,99.90
2019-05-22T20:15:37.890Z,99.90
2019-05-22T20:18:42.449Z,99.90
2019-05-22T20:21:46.781Z,99.90
2019-05-22T20:24:49.915Z,99.90
2019-05-22T20:27:54.491Z,99.90
2019-05-22T20:30:58.079Z,99.90
2019-05-22T20:34:01.094Z,99.90
2019-05-22T20:37:04.594Z,99.90
2019-05-22T20:40:09.095Z,99.90
2019-05-22T20:43:13.220Z,99.90
2019-05-22T20:46:18.163Z,99.90
2019-05-22T20:49:22.165Z,99.90
2019-05-22T20:52:29.436Z,99.90
2019-05-22T20:55:34.062Z,99.90
2019-05-22T20:58:38.910Z,99.90
2019-05-22T21:01:42.633Z,99.90
2019-05-22T21:04:47.519Z,99.90
2019-05-22T21:07:56.253Z,99.90
2019-05-22T21:11:01.147Z,99.90
2019-05-22T21:14:05.131Z,99.90
2019-05-22T21:17:08.703Z,99.90
2019-05-22T21:20:15.064Z,99.90
2019-05-22T21:23:19.776Z,99.90
2019-05-22T21:26:22.989Z,99.90
2019-05-22T21:29:26.863Z,99.90
2019-05-22T21:32:30.064Z,99.90
2019-05-22T21:35:34.411Z,99.90
2019-05-22T21:38:38.973Z,99.90
2019-05-22T21:41:42.958Z,99.90
2019-05-22T21:44:46.173Z,99.90
2019-05-22T21:47:50.981Z,99.90
2019-05-22T21:50:54.722Z,99.90
2019-05-22T21:53:58.525Z,99.90
2019-05-22T21:57:01.866Z,99.90
2019-05-22T22:00:10.143Z,99.90
2019-05-22T22:03:18.698Z,99.90
2019-05-22T22:06:24.267Z,99.90
2019-05-22T22:09:27.886Z,99.90
2019-05-22T22:12:31.849Z,99.90
2019-05-22T22:15:39.680Z,99.90
2019-05-22T22:18:43.496Z,99.90
2019-05-22T22:21:47.939Z,99.90
2019-05-22T22:24:52.026Z,99.90
2019-05-22T22:27:56.012Z,99.90
2019-05-22T22:31:03.883Z,99.90
2019-05-22T22:34:39.244Z,99.90
2019-05-22T22:37:43.211Z,99.90
2019-05-22T22:40:48.907Z,99.90
2019-05-22T22:43:52.840Z,99.90
2019-05-22T22:47:02.759Z,99.90
2019-05-22T22:50:07.265Z,99.90
2019-05-22T22:53:11.479Z,99.90
2019-05-22T22:56:16.917Z,99.90
2019-05-22T22:59:20.419Z,99.90
2019-05-22T23:02:29.973Z,99.90
2019-05-22T23:05:34.914Z,99.90
2019-05-22T23:08:39.036Z,99.90
2019-05-22T23:11:45.000Z,99.90
2019-05-22T23:14:56.104Z,99.90
2019-05-22T23:18:01.434Z,99.90
2019-05-22T23:21:04.112Z,99.90
2019-05-22T23:24:07.408Z,99.90
2019-05-22T23:27:12.688Z,99.90
2019-05-22T23:30:17.819Z,99.90
2019-05-22T23:33:21.379Z,99.90
2019-05-22T23:36:24.578Z,99.90
2019-05-22T23:39:30.061Z,99.90
2019-05-22T23:42:39.848Z,99.90
2019-05-22T23:45:42.975Z,99.90
2019-05-22T23:48:46.687Z,99.90
2019-05-22T23:51:50.314Z,99.90
2019-05-22T23:54:54.285Z,99.90
2019-05-22T23:57:58.051Z,99.90
